createdAt,value
2022-10-19T00:00:17.571Z,101019.91
2022-10-19T00:03:24.952Z,101012.69
2022-10-19T00:06:36.270Z,101020.81
2022-10-19T00:09:46.353Z,101017.75
2022-10-19T00:12:53.203Z,101007.75
2022-10-19T00:16:05.773Z,101003.03
2022-10-19T00:19:15.792Z,100999.16
2022-10-19T00:22:22.895Z,100987.34
2022-10-19T00:25:32.077Z,100986.25
2022-10-19T00:28:39.920Z,100973.44
2022-10-19T00:31:48.197Z,100976.66
2022-10-19T00:34:55.068Z,100982.56
2022-10-19T00:38:01.671Z,100983.25
2022-10-19T00:41:10.061Z,100964.69
2022-10-19T00:44:20.058Z,100960.38
2022-10-19T00:47:27.026Z,100962.34
2022-10-19T00:50:36.020Z,100958.72
2022-10-19T00:53:45.782Z,100946.56
2022-10-19T00:56:55.789Z,100943.59
2022-10-19T01:00:04.381Z,100945.41
2022-10-19T01:03:12.751Z,100944.41
2022-10-19T01:06:21.971Z,100937.81
2022-10-19T01:09:28.795Z,100944.59
2022-10-19T01:12:38.311Z,100941.06
2022-10-19T01:15:44.865Z,100937.69
2022-10-19T01:19:00.793Z,100924.50
2022-10-19T01:22:13.511Z,100917.59
2022-10-19T01:25:40.278Z,100908.91
2022-10-19T01:29:03.819Z,100915.56
2022-10-19T01:32:13.245Z,100915.28
2022-10-19T01:35:30.551Z,100900.91
2022-10-19T01:38:40.651Z,100898.25
2022-10-19T01:41:45.595Z,100903.16
2022-10-19T01:44:58.895Z,100895.13
2022-10-19T01:48:09.071Z,100898.06
2022-10-19T01:51:20.791Z,100898.16
2022-10-19T01:54:28.548Z,100902.03
2022-10-19T01:57:35.826Z,100896.56
2022-10-19T02:00:45.530Z,100896.03
2022-10-19T02:03:53.078Z,100898.37
2022-10-19T02:07:00.975Z,100903.47
2022-10-19T02:10:09.762Z,100890.81
2022-10-19T02:13:18.769Z,100901.41
2022-10-19T02:16:27.896Z,100886.84
2022-10-19T02:19:34.223Z,100891.28
2022-10-19T02:22:40.317Z,100887.66
2022-10-19T02:25:47.921Z,100888.31
2022-10-19T02:28:58.317Z,100892.53
2022-10-19T02:32:06.284Z,100895.66
2022-10-19T02:35:12.311Z,100896.53
2022-10-19T02:38:22.603Z,100899.28
2022-10-19T02:41:36.955Z,100898.25
2022-10-19T02:44:50.411Z,100889.75
2022-10-19T02:47:59.725Z,100891.03
2022-10-19T02:51:07.318Z,100893.22
2022-10-19T02:54:13.919Z,100884.75
2022-10-19T02:57:22.448Z,100885.75
2022-10-19T03:00:28.363Z,100885.88
2022-10-19T03:03:33.822Z,100885.75
2022-10-19T03:06:39.208Z,100889.22
2022-10-19T03:09:47.501Z,100880.28
2022-10-19T03:12:54.955Z,100898.37
2022-10-19T03:16:14.213Z,100898.22
2022-10-19T03:19:21.392Z,100897.00
2022-10-19T03:22:26.570Z,100893.81
2022-10-19T03:25:32.617Z,100892.66
2022-10-19T03:28:40.894Z,100881.31
2022-10-19T03:31:46.624Z,100890.31
2022-10-19T03:34:52.771Z,100889.94
2022-10-19T03:38:01.140Z,100888.00
2022-10-19T03:41:08.386Z,100886.00
2022-10-19T03:44:14.672Z,100884.84
2022-10-19T03:47:20.812Z,100889.00
2022-10-19T03:50:30.036Z,100892.00
2022-10-19T03:53:34.920Z,100891.16
2022-10-19T03:56:41.563Z,100880.00
2022-10-19T03:59:52.040Z,100875.38
2022-10-19T04:02:58.829Z,100890.84
2022-10-19T04:06:06.823Z,100880.69
2022-10-19T04:09:15.296Z,100889.88
2022-10-19T04:12:19.879Z,100888.03
2022-10-19T04:15:25.847Z,100888.56
2022-10-19T04:18:30.334Z,100899.00
2022-10-19T04:21:36.436Z,100901.53
2022-10-19T04:24:42.273Z,100896.38
2022-10-19T04:27:47.499Z,100890.72
2022-10-19T04:30:53.966Z,100892.91
2022-10-19T04:34:00.728Z,100885.56
2022-10-19T04:37:05.035Z,100893.22
2022-10-19T04:40:14.881Z,100887.69
2022-10-19T04:43:20.818Z,100879.91
2022-10-19T04:46:26.144Z,100894.00
2022-10-19T04:49:30.863Z,100882.38
2022-10-19T04:52:36.520Z,100891.34
2022-10-19T04:55:43.543Z,100876.56
2022-10-19T04:58:49.380Z,100890.66
2022-10-19T05:01:57.284Z,100887.56
2022-10-19T05:05:01.488Z,100889.81
2022-10-19T05:08:06.359Z,100888.81
2022-10-19T05:11:15.417Z,100889.25
2022-10-19T05:14:21.468Z,100902.72
2022-10-19T05:17:25.712Z,100902.88
2022-10-19T05:20:30.152Z,100896.97
2022-10-19T05:23:33.713Z,100893.34
2022-10-19T05:26:38.020Z,100907.94
2022-10-19T05:29:40.505Z,100901.22
2022-10-19T05:32:44.773Z,100907.22
2022-10-19T05:35:48.654Z,100918.31
2022-10-19T05:38:52.867Z,100922.13
2022-10-19T05:41:56.161Z,100924.28
2022-10-19T05:44:59.801Z,100925.63
2022-10-19T05:48:02.823Z,100929.81
2022-10-19T05:51:08.565Z,100930.81
2022-10-19T05:54:12.964Z,100938.31
2022-10-19T05:57:17.355Z,100932.34
2022-10-19T06:00:27.306Z,100933.19
2022-10-19T06:03:31.260Z,100942.69
2022-10-19T06:06:34.843Z,100947.47
2022-10-19T06:09:38.220Z,100944.16
2022-10-19T06:12:42.011Z,100943.62
2022-10-19T06:15:45.963Z,100942.81
2022-10-19T06:18:49.527Z,100963.13
2022-10-19T06:21:53.005Z,100965.94
2022-10-19T06:24:56.952Z,100962.94
2022-10-19T06:28:00.779Z,100963.44
2022-10-19T06:31:08.434Z,100975.44
2022-10-19T06:34:13.737Z,100975.44
2022-10-19T06:37:17.295Z,100977.59
2022-10-19T06:40:21.406Z,100975.66
2022-10-19T06:43:25.132Z,100983.97
2022-10-19T06:46:28.679Z,100986.97
2022-10-19T06:49:31.508Z,100980.00
2022-10-19T06:52:35.789Z,100987.66
2022-10-19T06:55:39.302Z,101006.13
2022-10-19T06:58:43.382Z,101007.63
2022-10-19T07:01:46.184Z,101005.97
2022-10-19T07:04:49.220Z,101003.84
2022-10-19T07:07:52.334Z,101012.31
2022-10-19T07:11:00.396Z,101016.66
2022-10-19T07:14:04.197Z,101036.44
2022-10-19T07:17:08.602Z,101030.63
2022-10-19T07:20:12.117Z,101035.25
2022-10-19T07:23:15.350Z,101047.94
2022-10-19T07:26:22.112Z,101052.25
2022-10-19T07:29:25.993Z,101063.75
2022-10-19T07:32:29.160Z,101051.25
2022-10-19T07:35:32.737Z,101056.72
2022-10-19T07:38:36.931Z,101046.38
2022-10-19T07:41:42.180Z,101055.88
2022-10-19T07:44:45.807Z,101064.31
2022-10-19T07:47:50.135Z,101066.63
2022-10-19T07:50:52.947Z,101059.00
2022-10-19T07:53:58.153Z,101055.59
2022-10-19T07:57:01.779Z,101053.09
2022-10-19T08:00:05.392Z,101050.91
2022-10-19T08:06:39.115Z,101050.28
2022-10-19T08:09:58.289Z,101052.62
2022-10-19T08:13:03.642Z,101049.81
2022-10-19T08:16:21.078Z,101044.88
2022-10-19T08:19:26.834Z,101048.91
2022-10-19T08:22:29.776Z,101048.13
2022-10-19T08:25:33.326Z,101040.56
2022-10-19T08:28:38.124Z,101048.97
2022-10-19T08:31:43.073Z,101043.00
2022-10-19T08:34:46.465Z,101051.28
2022-10-19T08:37:51.430Z,101043.28
2022-10-19T08:41:04.748Z,101046.28
2022-10-19T08:44:28.472Z,101045.84
2022-10-19T08:47:47.321Z,101046.91
2022-10-19T08:50:54.005Z,101044.25
2022-10-19T08:54:00.467Z,101042.59
2022-10-19T08:57:04.687Z,101043.78
2022-10-19T09:00:09.885Z,101041.78
2022-10-19T09:03:37.526Z,101041.28
2022-10-19T09:06:49.312Z,101036.50
2022-10-19T09:10:04.559Z,101026.41
2022-10-19T09:13:29.234Z,101036.66
2022-10-19T09:16:40.081Z,101038.91
2022-10-19T09:19:43.020Z,101032.38
2022-10-19T09:22:46.845Z,101031.34
2022-10-19T09:25:51.225Z,101039.91
2022-10-19T09:28:58.495Z,101035.56
2022-10-19T09:32:04.681Z,101043.37
2022-10-19T09:35:23.723Z,101036.56
2022-10-19T09:38:28.943Z,101037.94
2022-10-19T09:41:33.077Z,101039.59
2022-10-19T09:44:37.561Z,101039.12
2022-10-19T09:47:43.983Z,101043.37
2022-10-19T09:50:51.936Z,101051.53
2022-10-19T09:53:56.441Z,101052.34
2022-10-19T09:57:01.195Z,101049.16
2022-10-19T10:00:09.132Z,101041.56
2022-10-19T10:03:35.651Z,101039.47
2022-10-19T10:06:39.903Z,101031.81
2022-10-19T10:09:44.680Z,101014.81
2022-10-19T10:12:49.304Z,101021.91
2022-10-19T10:16:00.941Z,101028.09
2022-10-19T10:19:07.643Z,101017.75
2022-10-19T10:22:24.692Z,101006.81
2022-10-19T10:25:33.656Z,100998.91
2022-10-19T10:28:46.516Z,101006.50
2022-10-19T10:31:56.532Z,100994.66
2022-10-19T10:35:02.999Z,100992.47
2022-10-19T10:38:14.673Z,100982.16
2022-10-19T10:41:23.156Z,100989.31
2022-10-19T10:44:29.992Z,100981.25
2022-10-19T10:47:33.080Z,100987.84
2022-10-19T10:50:36.595Z,100993.84
2022-10-19T10:53:40.527Z,100990.47
2022-10-19T10:56:45.058Z,100986.06
2022-10-19T10:59:52.670Z,100967.06
2022-10-19T11:03:02.228Z,100973.50
2022-10-19T11:06:05.649Z,100963.72
2022-10-19T11:09:17.928Z,100966.97
2022-10-19T11:12:29.516Z,100960.69
2022-10-19T11:15:42.124Z,100961.47
2022-10-19T11:22:33.057Z,100952.22
2022-10-19T11:25:44.938Z,100958.72
2022-10-19T11:28:48.980Z,100964.25
2022-10-19T11:31:57.275Z,100951.44
2022-10-19T11:35:12.577Z,100946.63
2022-10-19T11:38:34.129Z,100947.41
2022-10-19T11:41:56.304Z,100934.44
2022-10-19T11:44:59.297Z,100938.03
2022-10-19T11:48:01.641Z,100943.19
2022-10-19T11:51:21.009Z,100931.13
2022-10-19T11:54:24.313Z,100931.38
2022-10-19T11:57:32.771Z,100931.22
2022-10-19T12:00:45.091Z,100938.19
2022-10-19T12:04:28.998Z,100919.19
2022-10-19T12:07:47.240Z,100928.63
2022-10-19T12:10:50.896Z,100930.12
2022-10-19T12:14:00.217Z,100925.69
2022-10-19T12:17:08.531Z,100916.72
2022-10-19T12:20:24.077Z,100903.81
2022-10-19T12:23:35.806Z,100901.94
2022-10-19T12:26:40.814Z,100897.03
2022-10-19T12:29:48.040Z,100893.56
2022-10-19T12:32:55.209Z,100905.84
2022-10-19T12:36:01.203Z,100886.84
2022-10-19T12:39:15.840Z,100893.69
2022-10-19T12:42:23.918Z,100894.97
2022-10-19T12:45:34.081Z,100885.84
2022-10-19T12:48:39.262Z,100875.69
2022-10-19T12:51:46.578Z,100879.41
2022-10-19T12:54:50.311Z,100871.34
2022-10-19T12:57:58.332Z,100878.38
2022-10-19T13:01:02.759Z,100875.25
2022-10-19T13:04:11.955Z,100868.44
2022-10-19T13:07:18.243Z,100871.16
2022-10-19T13:10:27.163Z,100868.44
2022-10-19T13:13:51.909Z,100864.75
2022-10-19T13:17:00.134Z,100872.56
2022-10-19T13:20:16.171Z,100864.91
2022-10-19T13:23:31.333Z,100859.75
2022-10-19T13:26:35.634Z,100855.62
2022-10-19T13:29:38.822Z,100872.56
2022-10-19T13:32:43.742Z,100872.94
2022-10-19T13:35:47.590Z,100875.22
2022-10-19T13:38:51.259Z,100883.88
2022-10-19T13:41:54.817Z,100877.69
2022-10-19T13:44:58.703Z,100883.84
2022-10-19T13:48:09.278Z,100876.12
2022-10-19T13:51:20.676Z,100885.06
2022-10-19T13:54:43.419Z,100885.63
2022-10-19T13:57:54.706Z,100881.25
2022-10-19T14:01:09.187Z,100876.06
2022-10-19T14:04:20.101Z,100869.19
2022-10-19T14:07:27.636Z,100868.34
2022-10-19T14:10:56.319Z,100866.41
2022-10-19T14:14:11.068Z,100862.06
2022-10-19T14:20:33.752Z,100869.69
2022-10-19T14:23:42.175Z,100878.47
2022-10-19T14:26:45.174Z,100876.97
2022-10-19T14:29:50.997Z,100879.00
2022-10-19T14:32:59.410Z,100872.81
2022-10-19T14:36:07.548Z,100880.69
2022-10-19T14:39:26.722Z,100879.19
2022-10-19T14:42:38.307Z,100870.72
2022-10-19T14:45:42.075Z,100878.94
2022-10-19T14:48:48.431Z,100872.25
2022-10-19T14:51:58.542Z,100877.59
2022-10-19T14:55:05.047Z,100874.63
2022-10-19T14:58:14.072Z,100863.34
2022-10-19T15:01:20.219Z,100859.66
2022-10-19T15:04:38.071Z,100851.38
2022-10-19T15:07:42.522Z,100863.72
2022-10-19T15:10:47.495Z,100866.53
2022-10-19T15:13:55.673Z,100872.56
2022-10-19T15:17:01.079Z,100873.31
2022-10-19T15:20:22.643Z,100862.94
2022-10-19T15:23:34.253Z,100867.66
2022-10-19T15:26:40.876Z,100875.50
2022-10-19T15:29:55.349Z,100876.16
2022-10-19T15:33:11.559Z,100887.78
2022-10-19T15:36:19.177Z,100883.34
2022-10-19T15:39:38.912Z,100872.22
2022-10-19T15:42:48.872Z,100860.41
2022-10-19T15:46:01.583Z,100867.53
2022-10-19T15:49:25.490Z,100876.72
2022-10-19T15:52:35.222Z,100877.72
2022-10-19T15:55:40.285Z,100895.53
2022-10-19T15:58:51.716Z,100901.69
2022-10-19T16:01:57.101Z,100897.78
2022-10-19T16:05:04.423Z,100893.38
2022-10-19T16:08:12.449Z,100889.97
2022-10-19T16:11:20.577Z,100896.88
2022-10-19T16:14:27.761Z,100910.28
2022-10-19T16:17:35.261Z,100925.06
2022-10-19T16:20:44.487Z,100937.38
2022-10-19T16:23:55.498Z,100936.56
2022-10-19T16:27:04.535Z,100941.84
2022-10-19T16:30:14.540Z,100957.00
2022-10-19T16:33:21.107Z,100949.63
2022-10-19T16:36:29.147Z,100945.53
2022-10-19T16:39:36.750Z,100935.06
2022-10-19T16:42:41.550Z,100920.72
2022-10-19T16:45:45.824Z,100923.62
2022-10-19T16:48:50.946Z,100937.12
2022-10-19T16:51:57.739Z,100958.72
2022-10-19T16:55:05.399Z,100959.75
2022-10-19T16:58:09.741Z,100978.66
2022-10-19T17:01:17.254Z,100978.16
2022-10-19T17:04:23.148Z,100974.69
2022-10-19T17:07:30.290Z,100979.00
2022-10-19T17:10:41.424Z,100971.03
2022-10-19T17:13:49.717Z,100975.34
2022-10-19T17:16:55.662Z,100985.34
2022-10-19T17:20:00.618Z,100986.66
2022-10-19T17:23:10.627Z,100979.19
2022-10-19T17:26:18.358Z,100988.66
2022-10-19T17:29:24.189Z,100990.16
2022-10-19T17:32:30.093Z,100990.66
2022-10-19T17:35:36.567Z,100981.69
2022-10-19T17:38:44.212Z,100993.34
2022-10-19T17:41:52.393Z,100997.00
2022-10-19T17:45:01.508Z,100997.84
2022-10-19T17:48:08.099Z,101007.97
2022-10-19T17:51:19.775Z,101008.81
2022-10-19T17:54:25.740Z,101014.13
2022-10-19T17:57:33.606Z,101013.13
2022-10-19T18:00:39.936Z,101008.16
2022-10-19T18:03:47.394Z,101011.47
2022-10-19T18:06:53.895Z,101013.78
2022-10-19T18:09:59.265Z,101008.62
2022-10-19T18:13:05.431Z,101004.97
2022-10-19T18:16:12.303Z,100993.31
2022-10-19T18:19:18.803Z,101008.41
2022-10-19T18:22:27.112Z,101030.03
2022-10-19T18:25:53.049Z,101035.47
2022-10-19T18:29:01.150Z,101040.37
2022-10-19T18:35:15.659Z,101059.94
2022-10-19T18:38:20.678Z,101057.25
2022-10-19T18:41:26.460Z,101067.03
2022-10-19T18:44:33.469Z,101060.00
2022-10-19T18:47:37.364Z,101069.69
2022-10-19T18:50:43.156Z,101073.72
2022-10-19T18:53:50.290Z,101059.88
2022-10-19T18:56:56.452Z,101070.28
2022-10-19T19:00:03.033Z,101071.72
2022-10-19T19:03:09.229Z,101075.84
2022-10-19T19:06:19.350Z,101083.25
2022-10-19T19:09:27.534Z,101090.44
2022-10-19T19:12:37.420Z,101094.87
2022-10-19T19:15:44.438Z,101098.44
2022-10-19T19:18:52.786Z,101103.06
2022-10-19T19:21:59.206Z,101077.59
2022-10-19T19:25:14.053Z,101076.38
2022-10-19T19:28:20.370Z,101069.06
2022-10-19T19:31:29.739Z,101084.34
2022-10-19T19:34:36.549Z,101090.81
2022-10-19T19:37:47.065Z,101093.47
2022-10-19T19:40:54.432Z,101097.19
2022-10-19T19:43:59.672Z,101096.19
2022-10-19T19:47:04.213Z,101104.63
2022-10-19T19:50:11.280Z,101120.63
2022-10-19T19:53:19.564Z,101132.59
2022-10-19T19:56:26.711Z,101130.94
2022-10-19T19:59:33.256Z,101111.03
2022-10-19T20:02:40.450Z,101116.06
2022-10-19T20:05:46.199Z,101112.97
2022-10-19T20:08:51.393Z,101130.12
2022-10-19T20:11:59.501Z,101133.09
2022-10-19T20:15:04.430Z,101122.28
2022-10-19T20:18:10.991Z,101139.34
2022-10-19T20:21:20.267Z,101145.25
2022-10-19T20:24:29.765Z,101148.19
2022-10-19T20:27:37.504Z,101146.41
2022-10-19T20:30:59.679Z,101155.34
2022-10-19T20:34:09.124Z,101158.44
2022-10-19T20:37:15.191Z,101164.88
2022-10-19T20:40:22.951Z,101152.75
2022-10-19T20:43:28.905Z,101162.63
2022-10-19T20:46:34.321Z,101171.97
2022-10-19T20:49:41.765Z,101166.94
2022-10-19T20:52:46.337Z,101169.06
2022-10-19T20:55:53.706Z,101173.53
2022-10-19T21:02:15.256Z,101163.56
2022-10-19T21:05:20.034Z,101175.13
2022-10-19T21:08:24.597Z,101176.97
2022-10-19T21:11:29.957Z,101179.06
2022-10-19T21:14:38.462Z,101183.22
2022-10-19T21:17:48.351Z,101184.91
2022-10-19T21:20:55.305Z,101183.94
2022-10-19T21:24:04.567Z,101181.00
2022-10-19T21:27:10.651Z,101181.28
2022-10-19T21:30:18.181Z,101183.09
2022-10-19T21:33:26.337Z,101184.91
2022-10-19T21:36:31.683Z,101186.72
2022-10-19T21:39:36.837Z,101194.53
2022-10-19T21:42:40.625Z,101194.94
2022-10-19T21:45:47.372Z,101203.72
2022-10-19T21:48:55.230Z,101197.84
2022-10-19T21:52:03.242Z,101198.97
2022-10-19T21:55:09.382Z,101203.69
2022-10-19T21:58:16.775Z,101200.31
2022-10-19T22:01:24.983Z,101213.94
2022-10-19T22:04:31.224Z,101203.94
2022-10-19T22:07:38.212Z,101200.47
2022-10-19T22:10:46.099Z,101208.81
2022-10-19T22:13:55.005Z,101208.72
2022-10-19T22:17:05.455Z,101205.34
2022-10-19T22:20:13.109Z,101197.16
2022-10-19T22:23:20.314Z,101195.87
2022-10-19T22:26:30.174Z,101198.66
2022-10-19T22:29:37.106Z,101197.91
2022-10-19T22:32:44.890Z,101195.81
2022-10-19T22:35:54.775Z,101193.00
2022-10-19T22:39:00.821Z,101191.12
2022-10-19T22:42:45.524Z,101193.09
2022-10-19T22:46:05.087Z,101194.06
2022-10-19T22:49:10.984Z,101199.25
2022-10-19T22:52:17.356Z,101195.94
2022-10-19T22:55:24.877Z,101201.22
2022-10-19T22:58:31.245Z,101196.03
2022-10-19T23:01:40.109Z,101191.97
2022-10-19T23:04:45.584Z,101198.16
2022-10-19T23:07:53.174Z,101198.75
2022-10-19T23:10:59.573Z,101200.38
2022-10-19T23:14:08.570Z,101203.22
2022-10-19T23:17:15.614Z,101206.87
2022-10-19T23:20:23.908Z,101215.41
2022-10-19T23:23:30.809Z,101219.97
2022-10-19T23:26:37.547Z,101225.97
2022-10-19T23:29:43.920Z,101230.66
2022-10-19T23:32:50.950Z,101236.06
2022-10-19T23:36:01.410Z,101232.25
2022-10-19T23:39:09.296Z,101236.00
2022-10-19T23:42:16.144Z,101230.84
2022-10-19T23:45:21.134Z,101234.94
2022-10-19T23:48:27.206Z,101240.00
2022-10-19T23:51:34.517Z,101237.06
2022-10-19T23:54:42.024Z,101240.22
2022-10-19T23:57:50.935Z,101241.34
